Loretto, Virginia
Current Conditions -  °F | °C
As of 3:55 AM on Friday 24 Oct 2014 (Local Time) from KXSA Reporting Station
Clear Clear  
Wind Chill: 53°   Ceiling: Unl
Heat Index: 53°   Visibility: 10mi
Dew Point: 40°   Wind: 5mph
Humidity: 63%   Direction: 260°W
Pressure: 29.93"   Gusts: NA
Location:  38.08°N, 77.05°W
Report Text: KXSA 240755Z AUTO 26004KT 10SM CLR 12/05 A2993 RMK AO2 T01150046
Loading
Personal Weather Stations






























Interactive Weather Map
Tropical Storm Tracking
New forecast layout! Learn more

10-Day Weather Forecast

Advertisements
Track Severe Weather on mobile